Time;durP1;ratioP1;P1;durP2;ratioP2;P2;SDS_P1;SDS_P2;PMS_P1;PMS_P2;Temp;Humidity;BMP_temperature;BMP_pressure;BME280_temperature;BME280_humidity;BME280_pressure;Samples;Min_cycle;Max_cycle;Signal;HPM_P1;HPM_P2
2021/10/05 00:01:44;;;;;;;354.20;333.07;;;11.60;99.90;;;;;;5036828;28;20185;-82
2021/10/05 00:04:10;;;;;;;368.38;345.73;;;11.50;99.90;;;;;;5037381;28;20525;-81
2021/10/05 00:06:36;;;;;;;398.63;375.73;;;11.50;99.90;;;;;;5018654;28;20189;-82
2021/10/05 00:09:02;;;;;;;328.80;309.37;;;11.30;99.90;;;;;;5037137;28;20408;-82
2021/10/05 00:11:28;;;;;;;379.65;357.85;;;11.30;99.90;;;;;;5037030;28;20162;-81
2021/10/05 00:13:54;;;;;;;382.48;360.85;;;11.30;99.90;;;;;;5036787;28;20165;-82
2021/10/05 00:16:20;;;;;;;357.43;336.13;;;11.30;99.90;;;;;;5037280;28;20256;-82
2021/10/05 00:18:47;;;;;;;392.20;369.40;;;11.40;99.90;;;;;;5036747;28;20691;-81
2021/10/05 00:21:13;;;;;;;411.35;388.13;;;11.40;99.90;;;;;;5036654;28;20169;-82
2021/10/05 00:23:39;;;;;;;376.63;354.67;;;11.30;99.90;;;;;;5036662;28;20231;-82
2021/10/05 00:26:06;;;;;;;389.10;367.00;;;11.20;99.90;;;;;;5036865;28;20193;-81
2021/10/05 00:28:31;;;;;;;359.85;337.67;;;11.20;99.90;;;;;;5037051;28;20206;-82
2021/10/05 00:30:57;;;;;;;331.70;311.03;;;11.40;99.90;;;;;;5036695;28;20169;-82
2021/10/05 00:33:24;;;;;;;335.33;314.57;;;11.30;99.90;;;;;;5036462;28;20215;-81
2021/10/05 00:35:50;;;;;;;368.00;346.42;;;11.30;99.90;;;;;;5018799;28;20419;-82
2021/10/05 00:38:17;;;;;;;370.83;349.13;;;11.20;99.90;;;;;;5036900;28;20189;-82
2021/10/05 00:40:42;;;;;;;354.45;333.65;;;11.10;99.90;;;;;;5036541;28;20170;-82
2021/10/05 00:43:08;;;;;;;351.43;330.77;;;11.10;99.90;;;;;;5037046;28;20177;-81
2021/10/05 00:45:35;;;;;;;371.23;349.50;;;11.10;99.90;;;;;;5035943;28;20272;-81
2021/10/05 00:48:01;;;;;;;376.20;354.42;;;11.10;99.90;;;;;;5036296;28;20459;-82
2021/10/05 00:50:27;;;;;;;354.10;333.90;;;11.00;99.90;;;;;;5036167;28;20591;-82
2021/10/05 00:52:52;;;;;;;330.97;311.17;;;11.00;99.90;;;;;;5018752;28;20406;-82
2021/10/05 00:55:18;;;;;;;330.30;311.10;;;11.00;99.90;;;;;;5036093;28;20169;-81
2021/10/05 00:57:44;;;;;;;297.47;278.97;;;11.10;99.90;;;;;;5036331;28;20181;-82
2021/10/05 01:00:10;;;;;;;283.57;265.90;;;11.10;99.90;;;;;;5017731;28;20447;-82
2021/10/05 01:02:37;;;;;;;310.25;291.35;;;11.00;99.90;;;;;;5035925;28;20165;-81
2021/10/05 01:05:06;;;;;;;287.27;269.08;;;11.10;99.90;;;;;;5017845;28;20173;-82
2021/10/05 01:07:32;;;;;;;259.00;242.23;;;11.00;99.90;;;;;;5035204;28;20181;-81
2021/10/05 01:09:58;;;;;;;324.67;305.77;;;11.00;99.90;;;;;;5035722;28;20196;-81
2021/10/05 01:12:24;;;;;;;295.27;277.00;;;11.00;99.90;;;;;;5036420;28;20396;-82
2021/10/05 01:14:49;;;;;;;314.43;295.70;;;11.00;99.90;;;;;;5035496;28;20185;-82
2021/10/05 01:17:15;;;;;;;304.17;285.97;;;11.10;99.90;;;;;;5035784;28;20279;-82
2021/10/05 01:19:41;;;;;;;254.03;237.10;;;11.10;99.90;;;;;;5017908;28;20164;-82
2021/10/05 01:22:07;;;;;;;310.60;292.00;;;11.10;99.90;;;;;;5017883;28;20173;-81
2021/10/05 01:24:34;;;;;;;304.45;285.73;;;11.10;99.90;;;;;;5017763;28;20464;-81
2021/10/05 01:27:00;;;;;;;296.52;278.27;;;11.10;99.90;;;;;;5035495;28;20611;-82
2021/10/05 01:29:28;;;;;;;273.13;256.05;;;11.10;99.90;;;;;;5035592;28;20228;-82
2021/10/05 01:31:56;;;;;;;294.15;275.40;;;11.10;99.90;;;;;;5017715;28;20165;-82
2021/10/05 01:34:23;;;;;;;325.17;305.83;;;11.10;99.90;;;;;;5035319;28;20172;-82
2021/10/05 01:36:53;;;;;;;325.05;305.50;;;11.10;99.90;;;;;;5035355;28;20172;-82
2021/10/05 01:39:33;;;;;;;316.15;297.08;;;11.00;99.90;;;;;;5035221;28;20169;-82
2021/10/05 01:42:03;;;;;;;340.08;319.85;;;11.00;99.90;;;;;;5017284;28;20255;-82
2021/10/05 01:44:28;;;;;;;350.27;330.42;;;11.00;99.90;;;;;;5018045;28;20181;-82
2021/10/05 01:46:54;;;;;;;314.73;295.97;;;11.10;99.90;;;;;;5035120;28;20242;-82
2021/10/05 01:49:21;;;;;;;275.40;258.27;;;11.10;99.90;;;;;;5035359;28;20576;-82
2021/10/05 01:51:47;;;;;;;291.45;273.58;;;11.10;99.90;;;;;;5035685;28;20204;-81
2021/10/05 01:54:13;;;;;;;327.10;307.13;;;11.00;99.90;;;;;;5017768;28;20169;-82
2021/10/05 01:56:40;;;;;;;314.02;295.50;;;11.00;99.90;;;;;;5035196;28;20169;-81
2021/10/05 01:59:05;;;;;;;306.23;288.17;;;11.00;99.90;;;;;;5035044;28;20166;-82
2021/10/05 02:01:31;;;;;;;333.47;314.50;;;10.90;99.90;;;;;;5034815;28;20226;-82
2021/10/05 02:04:00;;;;;;;339.43;319.73;;;10.90;99.90;;;;;;5035564;28;20164;-82
2021/10/05 02:06:26;;;;;;;382.23;360.17;;;10.90;99.90;;;;;;5035422;28;20190;-82
2021/10/05 02:08:52;;;;;;;390.10;367.48;;;10.90;99.90;;;;;;5017551;28;20268;-82
2021/10/05 02:11:17;;;;;;;389.40;367.07;;;10.90;99.90;;;;;;5035316;28;20200;-82
2021/10/05 02:13:43;;;;;;;344.53;324.03;;;10.90;99.90;;;;;;5035245;28;20537;-81
2021/10/05 02:16:10;;;;;;;352.47;331.87;;;10.90;99.90;;;;;;5035078;28;20814;-82
2021/10/05 02:18:36;;;;;;;331.05;311.45;;;10.90;99.90;;;;;;5038362;28;20195;-82
2021/10/05 02:21:01;;;;;;;362.17;341.47;;;10.90;99.90;;;;;;5039075;28;20211;-82
2021/10/05 02:26:11;;;;;;;381.48;360.67;;;10.90;99.90;;;;;;5039284;28;20208;-82
2021/10/05 02:28:37;;;;;;;395.27;373.27;;;10.90;99.90;;;;;;5038922;28;20177;-81
2021/10/05 02:31:03;;;;;;;379.53;358.33;;;10.90;99.90;;;;;;5021592;28;20169;-82
2021/10/05 02:33:30;;;;;;;417.13;394.07;;;10.90;99.90;;;;;;5038782;28;20177;-82
2021/10/05 02:35:56;;;;;;;389.88;367.67;;;10.90;99.90;;;;;;5038849;28;20529;-82
2021/10/05 02:38:21;;;;;;;398.10;375.60;;;10.90;99.90;;;;;;5021180;28;20192;-82
2021/10/05 02:40:47;;;;;;;405.20;382.57;;;10.90;99.90;;;;;;5021196;28;20203;-82
2021/10/05 02:43:13;;;;;;;397.60;375.10;;;10.90;99.90;;;;;;5020912;28;20250;-82
2021/10/05 02:45:38;;;;;;;459.33;433.60;;;10.90;99.90;;;;;;5038945;28;20193;-82
2021/10/05 02:48:05;;;;;;;431.43;406.73;;;10.90;99.90;;;;;;5038511;28;20188;-82
2021/10/05 02:50:30;;;;;;;430.83;406.58;;;10.90;99.90;;;;;;5038716;28;20165;-82
2021/10/05 02:52:56;;;;;;;470.00;443.30;;;10.90;99.90;;;;;;5038601;28;20245;-82
2021/10/05 02:55:22;;;;;;;464.63;438.93;;;10.80;99.90;;;;;;5038438;28;20164;-81
2021/10/05 02:57:47;;;;;;;498.73;470.73;;;10.80;99.90;;;;;;5020572;28;20247;-82
2021/10/05 03:00:14;;;;;;;488.33;461.27;;;10.90;99.90;;;;;;5020885;28;20660;-82
2021/10/05 03:02:40;;;;;;;494.60;467.23;;;10.90;99.90;;;;;;5038338;28;20169;-82
2021/10/05 03:05:07;;;;;;;522.10;493.13;;;10.90;99.90;;;;;;5038623;28;20167;-82
2021/10/05 03:07:33;;;;;;;521.38;492.75;;;10.90;99.90;;;;;;5020236;28;20260;-81
2021/10/05 03:09:58;;;;;;;476.80;450.40;;;10.90;99.90;;;;;;5038547;28;20176;-82
2021/10/05 03:12:26;;;;;;;521.57;492.97;;;10.90;99.90;;;;;;5038401;28;20158;-82
2021/10/05 03:14:51;;;;;;;518.17;490.25;;;11.00;99.90;;;;;;5020110;28;20600;-82
2021/10/05 03:17:17;;;;;;;484.63;458.13;;;11.00;99.90;;;;;;5038271;28;20192;-82
2021/10/05 03:19:43;;;;;;;505.50;477.63;;;11.00;99.90;;;;;;5038297;28;20262;-82
2021/10/05 03:22:09;;;;;;;510.23;482.87;;;11.10;99.90;;;;;;5038078;28;20211;-82
2021/10/05 03:24:34;;;;;;;476.00;449.92;;;11.10;99.90;;;;;;5037703;28;20575;-82
2021/10/05 03:27:00;;;;;;;517.50;489.90;;;11.20;99.90;;;;;;5037390;28;20197;-82
2021/10/05 03:29:26;;;;;;;494.40;467.67;;;11.20;99.90;;;;;;5037086;28;20165;-82
2021/10/05 03:31:51;;;;;;;489.37;462.37;;;11.20;99.90;;;;;;5037502;28;20533;-82
2021/10/05 03:34:17;;;;;;;521.20;492.33;;;11.20;99.90;;;;;;5037360;28;20169;-82
2021/10/05 03:36:43;;;;;;;530.13;501.33;;;11.20;99.90;;;;;;5037363;28;20643;-82
2021/10/05 03:39:09;;;;;;;538.83;509.03;;;11.20;99.90;;;;;;5019642;28;20420;-82
2021/10/05 03:41:34;;;;;;;510.90;483.43;;;11.20;99.90;;;;;;5037682;28;20172;-82
2021/10/05 03:44:00;;;;;;;498.73;471.83;;;11.10;99.90;;;;;;5037482;28;20165;-82
2021/10/05 03:46:26;;;;;;;514.57;486.80;;;11.10;99.90;;;;;;5037384;28;20189;-82
2021/10/05 03:48:51;;;;;;;537.57;508.77;;;11.20;99.90;;;;;;5019519;28;20251;-82
2021/10/05 03:51:17;;;;;;;546.30;517.33;;;11.20;99.90;;;;;;5019542;28;20175;-82
2021/10/05 03:53:43;;;;;;;548.20;518.77;;;11.20;99.90;;;;;;5037274;28;20168;-82
2021/10/05 03:56:08;;;;;;;523.13;495.13;;;11.20;99.90;;;;;;5037783;28;20185;-82
2021/10/05 03:58:34;;;;;;;540.43;511.53;;;11.20;99.90;;;;;;5037187;28;20714;-82
2021/10/05 04:01:03;;;;;;;529.57;501.37;;;11.20;99.90;;;;;;5037169;28;20181;-82
2021/10/05 04:03:30;;;;;;;486.50;460.20;;;11.20;99.90;;;;;;5036810;28;20412;-82
2021/10/05 04:05:55;;;;;;;530.92;502.65;;;11.20;99.90;;;;;;5019258;28;20197;-82
2021/10/05 04:08:21;;;;;;;519.97;491.83;;;11.20;99.90;;;;;;5036801;28;20219;-82
2021/10/05 04:10:50;;;;;;;497.03;470.63;;;11.30;99.90;;;;;;5036994;28;20161;-82
2021/10/05 04:13:16;;;;;;;508.90;481.95;;;11.20;99.90;;;;;;5036928;28;20701;-82
2021/10/05 04:15:42;;;;;;;489.90;463.83;;;11.20;99.90;;;;;;5037085;28;20176;-81
2021/10/05 04:18:08;;;;;;;512.03;484.47;;;11.20;99.90;;;;;;5019182;28;20195;-82
2021/10/05 04:20:34;;;;;;;524.10;495.87;;;11.20;99.90;;;;;;5019063;28;20507;-81
2021/10/05 04:22:59;;;;;;;527.33;499.13;;;11.30;99.90;;;;;;5036661;28;20414;-81
2021/10/05 04:25:26;;;;;;;497.20;470.73;;;11.30;99.90;;;;;;5019036;28;20193;-81
2021/10/05 04:27:52;;;;;;;544.15;514.55;;;11.20;99.90;;;;;;5037197;28;20173;-82
2021/10/05 04:30:18;;;;;;;539.25;510.08;;;11.30;99.90;;;;;;5036282;28;20663;-81
2021/10/05 04:32:44;;;;;;;537.20;508.13;;;11.30;99.90;;;;;;5018764;28;20548;-82
2021/10/05 04:35:10;;;;;;;507.67;480.07;;;11.30;99.90;;;;;;5036596;28;20162;-81
2021/10/05 04:37:36;;;;;;;501.03;474.63;;;11.30;99.90;;;;;;5036327;28;20651;-81
2021/10/05 04:40:03;;;;;;;484.77;458.60;;;11.20;99.90;;;;;;5036403;28;20660;-81
2021/10/05 04:42:28;;;;;;;490.40;464.17;;;11.20;99.90;;;;;;5035918;28;20166;-82
2021/10/05 04:44:54;;;;;;;534.83;506.17;;;11.20;99.90;;;;;;5036368;28;20172;-81
2021/10/05 04:47:20;;;;;;;522.17;494.77;;;11.20;99.90;;;;;;5036021;28;20695;-82
2021/10/05 04:49:45;;;;;;;552.93;523.77;;;11.20;99.90;;;;;;5036676;28;20549;-81
2021/10/05 04:52:11;;;;;;;513.93;485.90;;;11.30;99.90;;;;;;5036128;28;20162;-81
2021/10/05 04:54:37;;;;;;;560.67;531.00;;;11.30;99.90;;;;;;5036099;28;20164;-82
2021/10/05 04:57:03;;;;;;;512.87;485.60;;;11.20;99.90;;;;;;5036068;28;20561;-81
2021/10/05 04:59:29;;;;;;;539.97;511.07;;;11.20;99.90;;;;;;5036084;28;20396;-82
2021/10/05 05:01:55;;;;;;;513.10;485.50;;;11.30;99.90;;;;;;5036436;28;20223;-82
2021/10/05 05:04:21;;;;;;;524.10;495.20;;;11.30;99.90;;;;;;5018167;28;20176;-82
2021/10/05 05:06:46;;;;;;;505.00;477.67;;;11.30;99.90;;;;;;5035793;28;20616;-82
2021/10/05 05:09:12;;;;;;;532.47;503.80;;;11.30;99.90;;;;;;5035992;28;20507;-82
2021/10/05 05:11:38;;;;;;;532.27;502.97;;;11.30;99.90;;;;;;5036042;28;20165;-82
2021/10/05 05:14:13;;;;;;;542.87;512.80;;;11.30;99.90;;;;;;5035665;28;20164;-82
2021/10/05 05:16:41;;;;;;;557.25;527.28;;;11.40;99.90;;;;;;5018004;28;20195;-82
2021/10/05 05:19:08;;;;;;;517.90;489.50;;;11.30;99.90;;;;;;5017967;28;20199;-82
2021/10/05 05:21:34;;;;;;;551.65;521.25;;;11.30;99.90;;;;;;5035460;28;20161;-82
2021/10/05 05:23:59;;;;;;;537.50;508.55;;;11.30;99.90;;;;;;5035444;28;20172;-81
2021/10/05 05:26:26;;;;;;;515.63;487.87;;;11.30;99.90;;;;;;5035568;28;20197;-81
2021/10/05 05:28:53;;;;;;;523.40;495.27;;;11.30;99.90;;;;;;5035518;28;20181;-82
2021/10/05 05:31:19;;;;;;;523.97;495.85;;;11.30;99.90;;;;;;5017881;28;20665;-82
2021/10/05 05:33:45;;;;;;;467.97;442.97;;;11.30;99.90;;;;;;5035418;28;20177;-82
2021/10/05 05:36:11;;;;;;;484.60;458.30;;;11.30;99.90;;;;;;5017739;28;20177;-82
2021/10/05 05:38:36;;;;;;;428.20;404.95;;;11.30;99.90;;;;;;5035392;28;20201;-82
2021/10/05 05:41:02;;;;;;;435.23;411.30;;;11.20;99.90;;;;;;5035215;28;20256;-82
2021/10/05 05:43:28;;;;;;;423.47;400.70;;;11.20;99.90;;;;;;5017458;28;20173;-82
2021/10/05 05:45:54;;;;;;;433.15;410.02;;;11.20;99.90;;;;;;5034931;28;20615;-81
2021/10/05 05:48:20;;;;;;;401.03;379.33;;;11.30;99.90;;;;;;5034905;28;20189;-82
2021/10/05 05:50:46;;;;;;;447.47;423.93;;;11.30;99.90;;;;;;5018117;28;20162;-82
2021/10/05 05:53:12;;;;;;;364.27;343.90;;;11.30;99.90;;;;;;5022377;28;20247;-82
2021/10/05 05:55:38;;;;;;;402.92;381.10;;;11.30;99.90;;;;;;5024571;28;20246;-83
2021/10/05 05:58:11;;;;;;;382.23;361.38;;;11.30;99.90;;;;;;5042079;28;20187;-82
2021/10/05 06:00:37;;;;;;;405.02;382.67;;;11.30;99.90;;;;;;5041797;28;20176;-83
2021/10/05 06:03:03;;;;;;;415.30;392.73;;;11.40;99.90;;;;;;5041820;28;20192;-83
2021/10/05 06:05:29;;;;;;;387.63;365.90;;;11.40;99.90;;;;;;5024035;28;20249;-83
2021/10/05 06:07:55;;;;;;;452.40;428.53;;;11.40;99.90;;;;;;5042031;28;20592;-82
2021/10/05 06:10:21;;;;;;;426.57;403.27;;;11.40;99.90;;;;;;5041796;28;20402;-83
2021/10/05 06:12:47;;;;;;;409.33;386.83;;;11.50;99.90;;;;;;5042185;28;20396;-83
2021/10/05 06:15:15;;;;;;;460.17;435.37;;;11.50;99.90;;;;;;5024264;28;20230;-83
2021/10/05 06:17:42;;;;;;;414.80;392.10;;;11.50;99.90;;;;;;5041669;28;20235;-83
2021/10/05 06:20:16;;;;;;;377.88;356.88;;;11.40;99.90;;;;;;5024719;28;20176;-83
2021/10/05 06:22:42;;;;;;;415.90;393.20;;;11.40;99.90;;;;;;5042038;28;20628;-83
2021/10/05 06:25:12;;;;;;;424.35;401.15;;;11.50;99.90;;;;;;5041827;28;20176;-83
2021/10/05 06:27:38;;;;;;;375.73;355.00;;;11.50;99.90;;;;;;5042031;28;20280;-83
2021/10/05 06:30:06;;;;;;;406.00;383.58;;;11.60;99.90;;;;;;5042601;28;20640;-83
2021/10/05 06:32:32;;;;;;;390.65;369.70;;;11.60;99.90;;;;;;5041891;28;20684;-83
2021/10/05 06:34:57;;;;;;;329.70;310.37;;;11.60;99.90;;;;;;5024647;28;20211;-83
2021/10/05 06:37:23;;;;;;;390.57;369.17;;;11.70;99.90;;;;;;5041850;28;20427;-83
2021/10/05 06:39:49;;;;;;;387.07;365.73;;;11.70;99.90;;;;;;5042437;28;20176;-83
2021/10/05 06:42:14;;;;;;;403.67;381.40;;;11.80;99.90;;;;;;5041782;28;20169;-83
2021/10/05 06:44:40;;;;;;;408.77;386.57;;;11.90;99.90;;;;;;5041649;28;20822;-83
2021/10/05 06:47:06;;;;;;;344.80;324.92;;;11.80;99.90;;;;;;5024159;28;20208;-83
2021/10/05 06:49:32;;;;;;;365.67;345.20;;;11.90;99.90;;;;;;5042208;28;20169;-83
2021/10/05 06:51:58;;;;;;;373.73;352.63;;;11.90;99.90;;;;;;5024485;28;20424;-83
2021/10/05 06:54:23;;;;;;;375.07;354.33;;;11.90;99.90;;;;;;5024246;28;20171;-83
2021/10/05 06:56:49;;;;;;;382.67;360.93;;;12.00;99.90;;;;;;5042177;28;20227;-83
2021/10/05 06:59:15;;;;;;;382.73;361.43;;;12.00;99.90;;;;;;5041932;28;20196;-83
2021/10/05 07:01:40;;;;;;;416.73;394.70;;;12.10;99.90;;;;;;5125672;23;20262;-81
2021/10/05 07:04:06;;;;;;;402.67;380.80;;;12.10;99.90;;;;;;5061237;28;20210;-81
2021/10/05 07:06:32;;;;;;;387.87;366.60;;;12.20;99.90;;;;;;5059894;28;20198;-81
2021/10/05 07:08:57;;;;;;;373.03;352.30;;;12.20;99.90;;;;;;5060956;28;20168;-81
2021/10/05 07:11:23;;;;;;;413.03;390.37;;;12.20;99.90;;;;;;5060567;28;20240;-81
2021/10/05 07:13:49;;;;;;;449.40;425.30;;;12.30;99.90;;;;;;5059167;28;20169;-81
2021/10/05 07:16:15;;;;;;;440.23;416.23;;;12.40;99.90;;;;;;5059032;28;20403;-81
2021/10/05 07:18:40;;;;;;;454.30;429.53;;;12.50;99.90;;;;;;5042685;28;20558;-81
2021/10/05 07:21:06;;;;;;;473.03;447.23;;;12.60;99.90;;;;;;5058504;28;20399;-81
2021/10/05 07:23:32;;;;;;;445.87;421.47;;;12.60;99.90;;;;;;5058413;28;20172;-81
2021/10/05 07:25:57;;;;;;;499.13;472.10;;;12.70;99.90;;;;;;5059190;28;20618;-81
2021/10/05 07:28:23;;;;;;;489.53;463.23;;;12.60;99.90;;;;;;5058259;28;20216;-81
2021/10/05 07:30:49;;;;;;;462.53;437.87;;;12.70;99.90;;;;;;5058712;28;20207;-81
2021/10/05 07:33:15;;;;;;;421.73;398.70;;;12.70;99.90;;;;;;5058604;28;20163;-81
2021/10/05 07:35:41;;;;;;;413.63;391.17;;;12.70;99.90;;;;;;5042116;28;20164;-81
2021/10/05 07:38:07;;;;;;;364.57;344.17;;;12.80;99.90;;;;;;5059313;28;20430;-81
2021/10/05 07:40:33;;;;;;;359.20;339.20;;;12.80;99.90;;;;;;5060049;28;20399;-81
2021/10/05 07:43:00;;;;;;;385.03;363.87;;;13.00;99.90;;;;;;5059130;28;20177;-81
2021/10/05 07:45:30;;;;;;;323.63;304.97;;;13.00;99.90;;;;;;5058210;28;20453;-81
2021/10/05 07:47:56;;;;;;;330.63;311.93;;;13.10;99.90;;;;;;5057424;28;20909;-81
2021/10/05 07:50:24;;;;;;;302.33;284.77;;;13.20;99.90;;;;;;5040024;28;20419;-81
2021/10/05 07:52:49;;;;;;;333.08;313.88;;;13.20;99.90;;;;;;5058404;28;20164;-81
2021/10/05 07:55:15;;;;;;;309.47;291.53;;;13.20;99.90;;;;;;5058582;28;20191;-81
2021/10/05 07:57:42;;;;;;;325.83;307.33;;;13.20;99.90;;;;;;5041063;28;20284;-81
2021/10/05 08:00:09;;;;;;;293.87;276.47;;;13.40;99.90;;;;;;5040635;28;20454;-81
2021/10/05 08:02:34;;;;;;;295.13;277.67;;;13.40;99.90;;;;;;5059651;28;20908;-81
2021/10/05 08:05:00;;;;;;;282.90;265.73;;;13.40;99.90;;;;;;5060073;28;20399;-83
2021/10/05 08:07:27;;;;;;;293.87;276.30;;;13.40;99.90;;;;;;5041509;28;20204;-81
2021/10/05 08:09:57;;;;;;;269.23;252.67;;;13.40;99.90;;;;;;5040893;28;20168;-83
2021/10/05 08:12:23;;;;;;;291.00;273.77;;;13.40;99.90;;;;;;5039824;28;20444;-83
2021/10/05 08:14:50;;;;;;;333.65;314.75;;;13.50;99.90;;;;;;5039808;28;20407;-83
2021/10/05 08:17:16;;;;;;;313.47;295.37;;;13.60;99.90;;;;;;5058107;28;20188;-81
2021/10/05 08:19:42;;;;;;;319.90;301.33;;;13.60;99.90;;;;;;5039965;28;20498;-81
2021/10/05 08:22:08;;;;;;;375.53;354.37;;;13.70;99.90;;;;;;5058022;28;20425;-80
2021/10/05 08:24:35;;;;;;;343.97;324.33;;;13.80;99.90;;;;;;5058245;28;20639;-81
2021/10/05 08:27:02;;;;;;;345.73;325.90;;;13.90;99.90;;;;;;5040708;28;20458;-81
2021/10/05 08:29:27;;;;;;;406.10;384.00;;;13.90;99.90;;;;;;5039548;28;20548;-81
2021/10/05 08:31:53;;;;;;;381.00;359.70;;;13.90;99.90;;;;;;5057554;28;20459;-81
2021/10/05 08:34:19;;;;;;;383.30;361.77;;;14.00;99.90;;;;;;5057548;28;20160;-81
2021/10/05 08:36:45;;;;;;;371.10;350.03;;;13.90;99.90;;;;;;5039268;28;20182;-81
2021/10/05 08:39:14;;;;;;;366.27;344.83;;;14.00;99.90;;;;;;5057063;28;20410;-82
2021/10/05 08:41:43;;;;;;;373.70;351.90;;;14.00;99.90;;;;;;5057638;28;20414;-81
2021/10/05 08:44:09;;;;;;;338.13;318.37;;;14.00;99.90;;;;;;5057151;28;20403;-81
2021/10/05 08:46:39;;;;;;;376.23;354.50;;;14.10;99.90;;;;;;5040131;28;20480;-81
2021/10/05 08:49:06;;;;;;;307.13;288.40;;;14.10;99.90;;;;;;5058298;28;20624;-82
2021/10/05 08:51:33;;;;;;;267.80;250.17;;;14.20;99.90;;;;;;5057759;28;20391;-81
2021/10/05 08:53:58;;;;;;;268.17;250.07;;;14.20;99.90;;;;;;5057388;28;20407;-81
2021/10/05 08:56:24;;;;;;;204.47;189.00;;;14.30;99.90;;;;;;5056667;28;20774;-81
2021/10/05 08:58:50;;;;;;;190.33;175.53;;;14.40;99.90;;;;;;5057150;28;20694;-80
2021/10/05 09:01:17;;;;;;;121.53;109.63;;;14.50;99.90;;;;;;5057147;28;20419;-81
2021/10/05 09:03:51;;;;;;;85.10;49.40;;;14.50;99.90;;;;;;5039133;28;20173;-81
2021/10/05 09:06:18;;;;;;;78.80;39.30;;;14.50;99.90;;;;;;5039271;28;20457;-82
2021/10/05 09:08:45;;;;;;;79.80;36.17;;;14.50;99.90;;;;;;5056436;28;20468;-82
2021/10/05 09:11:13;;;;;;;77.10;32.40;;;14.50;99.90;;;;;;5038840;28;20407;-81
2021/10/05 09:13:42;;;;;;;78.30;36.20;;;14.50;99.90;;;;;;5056993;28;20455;-81
2021/10/05 09:16:34;;;;;;;78.03;36.50;;;14.60;99.90;;;;;;5038808;28;20827;-81
2021/10/05 09:19:08;;;;;;;79.60;40.47;;;14.70;99.90;;;;;;5038877;28;20407;-81
2021/10/05 09:21:43;;;;;;;77.47;36.20;;;14.80;99.90;;;;;;5056990;28;20404;-81
2021/10/05 09:24:11;;;;;;;83.13;49.53;;;14.90;99.90;;;;;;5056882;28;20387;-81
2021/10/05 09:26:52;;;;;;;88.40;67.27;;;15.00;99.90;;;;;;5056594;28;20442;-81
2021/10/05 09:29:22;;;;;;;99.60;86.33;;;15.10;99.90;;;;;;5056544;28;20383;-81
2021/10/05 09:32:01;;;;;;;99.73;88.93;;;15.20;99.90;;;;;;5057811;28;20400;-81
2021/10/05 09:34:50;;;;;;;131.73;119.93;;;15.30;99.90;;;;;;5056491;28;20376;-81
2021/10/05 09:37:22;;;;;;;142.40;130.17;;;15.40;99.90;;;;;;5038887;28;20470;-82
2021/10/05 09:39:55;;;;;;;137.77;125.60;;;15.50;99.90;;;;;;5039165;28;20474;-81
2021/10/05 09:42:24;;;;;;;102.50;89.77;;;15.60;99.90;;;;;;5057391;28;20428;-81
2021/10/05 09:45:05;;;;;;;85.70;60.10;;;15.70;99.90;;;;;;5056592;28;20403;-81
2021/10/05 09:47:35;;;;;;;80.43;44.40;;;15.70;99.90;;;;;;5057095;28;20482;-81
2021/10/05 09:50:03;;;;;;;75.27;31.87;;;15.80;99.90;;;;;;5056200;28;20409;-81
2021/10/05 09:52:47;;;;;;;73.47;27.20;;;16.00;99.90;;;;;;5056668;28;20413;-81
2021/10/05 09:55:18;;;;;;;72.67;20.80;;;16.30;99.90;;;;;;5056684;28;20403;-80
2021/10/05 09:57:44;;;;;;;70.37;19.77;;;16.40;99.90;;;;;;5148823;22;20484;-81
2021/10/05 10:00:12;;;;;;;74.77;30.70;;;16.50;99.90;;;;;;5142672;22;20601;-81
2021/10/05 10:02:42;;;;;;;74.37;29.63;;;16.60;99.90;;;;;;5056051;28;20405;-80
2021/10/05 10:05:27;;;;;;;90.53;67.70;;;16.70;99.90;;;;;;5056311;28;20923;-80
2021/10/05 10:07:54;;;;;;;87.73;57.37;;;16.90;99.50;;;;;;5056411;28;20432;-80
2021/10/05 10:10:25;;;;;;;90.93;63.90;;;17.00;99.90;;;;;;5056608;28;20488;-81
2021/10/05 10:12:53;;;;;;;84.90;59.97;;;17.10;99.10;;;;;;5058336;28;20417;-81
2021/10/05 10:15:22;;;;;;;83.87;55.73;;;17.20;96.00;;;;;;5059050;28;20445;-81
2021/10/05 10:17:48;;;;;;;80.27;33.03;;;17.30;96.90;;;;;;5058983;28;20426;-81
2021/10/05 10:20:27;;;;;;;72.90;25.70;;;17.30;97.60;;;;;;5059799;28;20451;-81
2021/10/05 10:22:53;;;;;;;76.80;27.67;;;17.40;96.70;;;;;;5039730;28;20258;-81
2021/10/05 10:25:24;;;;;;;72.60;24.60;;;17.40;93.60;;;;;;5056356;28;20392;-81
2021/10/05 10:27:52;;;;;;;70.87;20.63;;;17.50;97.00;;;;;;5038162;28;20493;-81
2021/10/05 10:30:19;;;;;;;75.50;29.03;;;17.70;98.50;;;;;;5056292;28;20782;-81
2021/10/05 10:32:50;;;;;;;73.80;26.63;;;17.70;90.70;;;;;;5037980;28;20403;-81
2021/10/05 10:35:16;;;;;;;76.53;30.77;;;17.70;92.40;;;;;;5055770;28;20440;-80
2021/10/05 10:37:44;;;;;;;75.77;33.33;;;17.70;91.60;;;;;;5056842;28;20431;-80
2021/10/05 10:40:12;;;;;;;75.77;34.57;;;17.70;91.10;;;;;;5060909;28;20498;-81
2021/10/05 10:42:38;;;;;;;75.63;32.70;;;17.70;92.20;;;;;;5061426;28;20425;-81
2021/10/05 10:45:18;;;;;;;75.13;34.97;;;17.80;91.90;;;;;;5062795;28;20435;-83
2021/10/05 10:47:45;;;;;;;76.03;34.70;;;17.90;90.50;;;;;;5061462;28;20438;-81
2021/10/05 10:50:14;;;;;;;77.73;36.53;;;18.00;92.20;;;;;;5058558;28;20429;-79
2021/10/05 10:52:45;;;;;;;75.63;34.40;;;18.10;88.60;;;;;;5059184;28;20399;-80
2021/10/05 10:55:14;;;;;;;80.33;39.20;;;18.10;90.40;;;;;;5060138;28;20383;-80
2021/10/05 10:57:42;;;;;;;92.07;70.33;;;18.30;86.10;;;;;;5059427;28;20430;-80
2021/10/05 11:00:26;;;;;;;95.13;75.03;;;18.30;82.10;;;;;;5058991;28;20921;-80
2021/10/05 11:02:56;;;;;;;91.37;61.67;;;18.50;82.20;;;;;;5059466;28;20399;-80
2021/10/05 11:05:24;;;;;;;86.23;62.43;;;18.60;79.60;;;;;;5058948;28;20399;-80
2021/10/05 11:07:51;;;;;;;96.97;82.60;;;18.70;83.30;;;;;;5061683;28;20507;-80
2021/10/05 11:10:23;;;;;;;91.73;67.73;;;18.90;79.70;;;;;;5063469;28;20957;-80
2021/10/05 11:12:52;;;;;;;82.87;55.47;;;18.90;73.80;;;;;;5063062;28;20387;-80
2021/10/05 11:15:40;;;;;;;114.50;102.63;;;19.00;72.40;;;;;;5062695;28;20411;-79
2021/10/05 11:18:18;;;;;;;85.83;58.90;;;18.90;64.90;;;;;;5062709;28;20514;-79
2021/10/05 11:20:47;;;;;;;87.90;69.07;;;18.80;68.50;;;;;;5066557;28;20387;-79
2021/10/05 11:23:17;;;;;;;90.47;59.93;;;18.80;73.20;;;;;;5046475;28;20412;-79
2021/10/05 11:25:52;;;;;;;83.37;53.67;;;18.90;68.00;;;;;;5047760;28;20446;-80
2021/10/05 11:28:21;;;;;;;90.70;72.93;;;18.80;69.70;;;;;;5058982;28;20481;-78
2021/10/05 11:30:51;;;;;;;100.10;62.60;;;18.80;77.00;;;;;;5044856;28;20442;-79
2021/10/05 11:33:29;;;;;;;85.40;60.40;;;19.00;66.70;;;;;;5060739;28;20442;-78
2021/10/05 11:35:58;;;;;;;137.20;124.37;;;19.10;72.90;;;;;;5059727;28;20486;-79
2021/10/05 11:38:35;;;;;;;168.70;155.20;;;19.30;65.10;;;;;;5062143;28;20424;-79
2021/10/05 11:41:02;;;;;;;158.97;145.73;;;19.30;64.40;;;;;;5061703;28;20406;-79
2021/10/05 11:43:43;;;;;;;84.63;54.03;;;19.10;62.40;;;;;;5047801;28;20502;-79
2021/10/05 11:46:12;;;;;;;143.17;130.97;;;19.20;73.30;;;;;;5065143;28;20446;-78
2021/10/05 11:48:40;;;;;;;171.50;157.53;;;19.30;63.60;;;;;;5062076;28;20433;-78
2021/10/05 11:51:06;;;;;;;168.93;155.87;;;19.50;65.50;;;;;;5061331;28;20415;-78
2021/10/05 11:53:33;;;;;;;134.10;122.20;;;19.70;58.80;;;;;;5060125;28;20399;-78
2021/10/05 11:56:10;;;;;;;144.47;132.20;;;19.80;59.30;;;;;;5060106;28;20197;-79
2021/10/05 11:58:48;;;;;;;183.20;169.80;;;19.50;60.60;;;;;;5059614;28;20429;-78
2021/10/05 12:01:17;;;;;;;164.00;151.03;;;19.30;67.80;;;;;;5062587;28;20828;-78
2021/10/05 12:03:45;;;;;;;170.00;156.87;;;18.90;70.00;;;;;;5058228;28;20391;-79
2021/10/05 12:06:10;;;;;;;147.03;134.67;;;18.80;72.30;;;;;;5060427;28;20478;-79
2021/10/05 12:08:55;;;;;;;87.17;60.13;;;18.60;75.90;;;;;;5040810;28;20442;-79
2021/10/05 12:11:20;;;;;;;82.80;55.23;;;18.40;81.30;;;;;;5063295;28;20149;-80
2021/10/05 12:13:46;;;;;;;100.73;87.73;;;18.30;83.90;;;;;;5046954;28;20865;-81
2021/10/05 12:16:16;;;;;;;125.87;114.47;;;18.30;86.20;;;;;;5047104;28;20172;-81